ASY541 LCRA-LCRA

Flight info

Callsign ASY541
Flight time 0h 16m
Altitude 5000
Route LCRA DCT LCLK DCT LCRA
Aircraft F35/M-SDFGHIRTUY/L

Departure

Time 2026-04-15 13:21
Airport RAF Akrotiri (LCRA)

Arrival

Time 2026-04-15 13:38
Airport RAF Akrotiri (LCRA)
Time Latitude Longitude Altitude Speed Heading
2026-04-15 13:09 34.58347 33.00271 74 ft 0 kts 238°
2026-04-15 13:13 34.58345 33.00265 74 ft 4 kts 238°
2026-04-15 13:13 34.58360 33.00217 74 ft 11 kts 333°
2026-04-15 13:13 34.58424 33.00176 74 ft 10 kts 330°
2026-04-15 13:13 34.58495 33.00129 74 ft 12 kts 332°
2026-04-15 13:14 34.58567 33.00086 74 ft 11 kts 338°
2026-04-15 13:14 34.58631 33.00051 74 ft 9 kts 335°
2026-04-15 13:14 34.58684 33.00022 70 ft 9 kts 335°
2026-04-15 13:14 34.58719 32.99979 75 ft 0 kts 288°
2026-04-15 13:21 34.58882 32.99365 72 ft 179 kts 288°
2026-04-15 13:21 34.59461 32.97184 121 ft 368 kts 288°
2026-04-15 13:21 34.60218 32.94358 3818 ft 367 kts 285°
2026-04-15 13:21 34.61026 32.90555 4680 ft 539 kts 284°
2026-04-15 13:22 34.61917 32.85679 4892 ft 631 kts 282°
2026-04-15 13:22 34.62712 32.80368 5165 ft 643 kts 279°
2026-04-15 13:22 34.62811 32.74997 5457 ft 640 kts 250°
2026-04-15 13:22 34.59710 32.71456 5736 ft 639 kts 191°
2026-04-15 13:23 34.55754 32.72977 5876 ft 631 kts 128°
2026-04-15 13:23 34.55326 32.77576 5450 ft 524 kts 56°
2026-04-15 13:23 34.57172 32.80947 5686 ft 441 kts 56°
2026-04-15 13:23 34.58774 32.83826 5818 ft 385 kts 56°
2026-04-15 13:24 34.60201 32.86350 5837 ft 339 kts 49°
2026-04-15 13:24 34.61982 32.88092 5899 ft 326 kts 36°
2026-04-15 13:24 34.63811 32.89688 5960 ft 320 kts 35°
2026-04-15 13:24 34.65605 32.91245 6038 ft 314 kts 35°
2026-04-15 13:25 34.67379 32.92777 6116 ft 309 kts 35°
2026-04-15 13:25 34.69117 32.94273 6204 ft 303 kts 34°
2026-04-15 13:25 34.70828 32.95740 6295 ft 298 kts 34°
2026-04-15 13:25 34.72508 32.97176 6400 ft 292 kts 34°
2026-04-15 13:26 34.74149 32.98578 6478 ft 285 kts 34°
2026-04-15 13:26 34.75888 32.99415 6362 ft 303 kts 329°
2026-04-15 13:26 34.75720 32.96882 5361 ft 439 kts 206°
2026-04-15 13:26 34.72892 32.98207 4114 ft 468 kts 107°
2026-04-15 13:27 34.71979 33.01696 4144 ft 405 kts 106°
2026-04-15 13:27 34.71819 33.04787 3905 ft 345 kts 81°
2026-04-15 13:27 34.72147 33.07475 3916 ft 306 kts 79°
2026-04-15 13:27 34.72627 33.09819 3624 ft 274 kts 74°
2026-04-15 13:28 34.73080 33.11950 3445 ft 246 kts 75°
2026-04-15 13:28 34.73432 33.13850 3336 ft 217 kts 82°
2026-04-15 13:28 34.73598 33.15593 3296 ft 201 kts 82°
2026-04-15 13:28 34.73749 33.17203 3227 ft 182 kts 82°
2026-04-15 13:29 34.73895 33.18849 3171 ft 219 kts 83°
2026-04-15 13:29 34.74106 33.20893 3245 ft 261 kts 82°
2026-04-15 13:29 34.74369 33.23183 3353 ft 286 kts 81°
2026-04-15 13:29 34.74662 33.25680 3481 ft 316 kts 81°
2026-04-15 13:30 34.75006 33.28512 3588 ft 360 kts 80°
2026-04-15 13:30 34.75354 33.31468 3732 ft 329 kts 81°
2026-04-15 13:30 34.75636 33.34059 3786 ft 289 kts 81°
2026-04-15 13:30 34.75075 33.36018 3752 ft 229 kts 155°
2026-04-15 13:31 34.73716 33.35466 3581 ft 269 kts 236°
2026-04-15 13:31 34.74142 33.33592 3204 ft 237 kts
2026-04-15 13:31 34.75115 33.35006 2417 ft 295 kts 71°
2026-04-15 13:31 34.75812 33.38247 2515 ft 493 kts 76°
2026-04-15 13:32 34.76548 33.42638 2598 ft 446 kts 79°
2026-04-15 13:32 34.77353 33.46735 2401 ft 564 kts 76°
2026-04-15 13:32 34.78860 33.51489 2254 ft 634 kts 60°
2026-04-15 13:32 34.81764 33.55660 1298 ft 655 kts 45°
2026-04-15 13:33 34.84984 33.59546 862 ft 648 kts 45°
2026-04-15 13:33 34.88188 33.63435 707 ft 653 kts 45°
2026-04-15 13:33 34.88739 33.68137 1492 ft 631 kts 136°
2026-04-15 13:33 34.84605 33.68133 2058 ft 661 kts 217°
2026-04-15 13:34 34.81155 33.64336 2100 ft 675 kts 222°
2026-04-15 13:34 34.78175 33.59973 2035 ft 672 kts 246°
2026-04-15 13:34 34.76902 33.54498 1713 ft 678 kts 262°
2026-04-15 13:34 34.76275 33.48827 1881 ft 679 kts 263°
2026-04-15 13:35 34.75670 33.43121 1848 ft 682 kts 263°
2026-04-15 13:35 34.74897 33.37500 1838 ft 683 kts 260°
2026-04-15 13:35 34.74021 33.31816 1821 ft 686 kts 260°
2026-04-15 13:35 34.73133 33.26032 1822 ft 687 kts 259°
2026-04-15 13:36 34.72257 33.20398 1883 ft 686 kts 259°
2026-04-15 13:36 34.69568 33.15964 2054 ft 673 kts 220°
2026-04-15 13:36 34.65986 33.12189 1646 ft 684 kts 220°
2026-04-15 13:36 34.62368 33.08427 1465 ft 682 kts 220°
2026-04-15 13:37 34.59731 33.05925 1239 ft 340 kts 217°
2026-04-15 13:37 34.58462 33.03950 832 ft 263 kts 253°
2026-04-15 13:37 34.58314 33.02014 451 ft 203 kts 276°
2026-04-15 13:37 34.58581 33.00558 118 ft 153 kts 287°
2026-04-15 13:38 34.58854 32.99483 71 ft 113 kts 287°
2026-04-15 13:38 34.59002 32.98906 75 ft 31 kts 287°
2026-04-15 13:38 34.59009 32.98876 72 ft 32 kts 287°